createdAt,value
2023-12-30T00:01:22.973Z,6.86
2023-12-30T00:03:49.956Z,6.83
2023-12-30T00:06:17.156Z,6.93
2023-12-30T00:08:44.541Z,6.94
2023-12-30T00:11:11.432Z,6.93
2023-12-30T00:13:41.408Z,6.98
2023-12-30T00:16:11.772Z,7.00
2023-12-30T00:18:41.900Z,6.98
2023-12-30T00:21:08.714Z,7.09
2023-12-30T00:23:43.181Z,7.12
2023-12-30T00:31:48.756Z,7.17
2023-12-30T00:34:19.094Z,7.13
2023-12-30T00:36:46.127Z,7.11
2023-12-30T00:39:14.857Z,7.09
2023-12-30T00:44:22.646Z,7.11
2023-12-30T00:46:49.273Z,6.97
2023-12-30T00:49:16.989Z,7.02
2023-12-30T00:51:43.721Z,7.08
2023-12-30T00:54:10.665Z,7.04
2023-12-30T00:56:37.351Z,7.04
2023-12-30T00:59:08.981Z,7.02
2023-12-30T01:01:35.750Z,7.00
2023-12-30T01:04:05.335Z,6.90
2023-12-30T01:09:12.899Z,6.93
2023-12-30T01:11:39.778Z,6.84
2023-12-30T01:14:07.671Z,6.85
2023-12-30T01:16:38.431Z,6.81
2023-12-30T01:19:05.667Z,6.67
2023-12-30T01:21:32.747Z,6.64
2023-12-30T01:26:47.423Z,6.70
2023-12-30T01:37:23.411Z,6.61
2023-12-30T01:39:53.095Z,6.67
2023-12-30T01:42:19.965Z,6.70
2023-12-30T01:44:46.997Z,6.83
2023-12-30T01:49:55.087Z,6.51
2023-12-30T01:52:24.869Z,6.69
2023-12-30T01:54:55.801Z,6.70
2023-12-30T01:57:24.157Z,6.48
2023-12-30T02:02:34.620Z,6.60
2023-12-30T02:05:02.420Z,6.59
2023-12-30T02:07:30.814Z,6.48
2023-12-30T02:09:58.348Z,6.43
2023-12-30T02:12:26.947Z,6.41
2023-12-30T02:20:14.850Z,6.56
2023-12-30T02:22:46.085Z,6.43
2023-12-30T02:25:14.200Z,6.46
2023-12-30T02:27:50.842Z,6.64
2023-12-30T02:30:26.005Z,6.56
2023-12-30T02:33:00.495Z,6.47
2023-12-30T02:35:29.238Z,6.62
2023-12-30T02:38:02.866Z,6.72
2023-12-30T02:40:29.621Z,6.75
2023-12-30T02:42:58.586Z,6.73
2023-12-30T02:45:25.379Z,6.73
2023-12-30T02:47:57.874Z,6.70
2023-12-30T02:50:25.981Z,6.78
2023-12-30T02:52:53.649Z,6.69
2023-12-30T02:55:20.545Z,6.69
2023-12-30T03:03:12.373Z,6.76
2023-12-30T03:05:41.444Z,6.65
2023-12-30T03:08:09.442Z,6.62
2023-12-30T03:10:40.428Z,6.58
2023-12-30T03:13:07.937Z,6.63
2023-12-30T03:15:34.902Z,6.63
2023-12-30T03:20:42.636Z,6.78
2023-12-30T03:23:09.308Z,6.79
2023-12-30T03:28:22.709Z,6.90
2023-12-30T03:30:49.537Z,6.87
2023-12-30T03:33:19.696Z,6.88
2023-12-30T03:35:47.135Z,6.86
2023-12-30T03:38:14.523Z,6.86
2023-12-30T03:46:16.358Z,6.95
2023-12-30T03:48:44.878Z,6.87
2023-12-30T03:53:59.593Z,6.93
2023-12-30T03:56:26.540Z,6.92
2023-12-30T03:58:54.318Z,6.98
2023-12-30T04:01:27.784Z,6.94
2023-12-30T04:03:54.812Z,6.96
2023-12-30T04:06:22.115Z,7.01
2023-12-30T04:08:48.979Z,7.02
2023-12-30T04:11:16.420Z,7.01
2023-12-30T04:13:43.436Z,6.95
2023-12-30T04:16:10.278Z,6.92
2023-12-30T04:18:38.688Z,6.99
2023-12-30T04:21:08.673Z,7.01
2023-12-30T04:23:36.356Z,6.89
2023-12-30T04:26:06.626Z,6.92
2023-12-30T04:28:41.057Z,7.04
2023-12-30T04:33:48.497Z,7.06
2023-12-30T04:41:40.271Z,6.81
2023-12-30T04:44:14.719Z,6.77
2023-12-30T04:46:41.838Z,6.73
2023-12-30T04:49:09.525Z,6.88
2023-12-30T04:51:38.093Z,6.84
2023-12-30T04:59:30.754Z,6.99
2023-12-30T05:01:58.308Z,6.99
2023-12-30T05:07:05.859Z,7.04
2023-12-30T05:09:37.516Z,6.98
2023-12-30T05:14:48.232Z,7.03
2023-12-30T05:17:14.861Z,7.07
2023-12-30T05:19:41.538Z,7.02
2023-12-30T05:22:08.666Z,7.00
2023-12-30T05:24:35.847Z,7.09
2023-12-30T05:27:03.406Z,6.99
2023-12-30T05:32:11.513Z,7.16
2023-12-30T05:34:47.604Z,7.12
2023-12-30T05:37:14.396Z,7.10
2023-12-30T05:39:41.378Z,7.14
2023-12-30T05:42:09.486Z,7.12
2023-12-30T05:44:37.258Z,7.15
2023-12-30T05:47:07.028Z,7.20
2023-12-30T05:49:34.604Z,7.10
2023-12-30T05:52:01.499Z,7.18
2023-12-30T05:54:28.399Z,7.14
2023-12-30T05:56:55.617Z,7.05
2023-12-30T05:59:22.313Z,7.00
2023-12-30T06:01:49.066Z,7.07
2023-12-30T06:04:19.029Z,6.94
2023-12-30T06:06:46.273Z,7.01
2023-12-30T06:09:13.494Z,7.00
2023-12-30T06:11:40.148Z,6.91
2023-12-30T06:14:06.827Z,6.95
2023-12-30T06:16:33.815Z,6.91
2023-12-30T06:19:00.686Z,6.90
2023-12-30T06:21:27.328Z,6.96
2023-12-30T06:23:54.279Z,6.94
2023-12-30T06:26:20.859Z,6.96
2023-12-30T06:28:48.589Z,6.91
2023-12-30T06:31:17.081Z,6.91
2023-12-30T06:33:43.773Z,6.96
2023-12-30T06:36:11.536Z,6.98
2023-12-30T06:38:38.251Z,6.97
2023-12-30T06:41:08.326Z,6.91
2023-12-30T06:43:35.275Z,6.97
2023-12-30T06:46:05.258Z,7.01
2023-12-30T06:48:32.251Z,7.03
2023-12-30T06:50:58.833Z,7.09
2023-12-30T06:53:25.602Z,7.05
2023-12-30T06:55:52.309Z,7.14
2023-12-30T06:58:19.164Z,7.20
2023-12-30T07:00:46.306Z,7.18
2023-12-30T07:03:13.089Z,7.20
2023-12-30T07:05:39.877Z,7.25
2023-12-30T07:08:06.966Z,7.15
2023-12-30T07:10:33.794Z,7.20
2023-12-30T07:13:00.870Z,7.23
2023-12-30T07:15:27.982Z,7.21
2023-12-30T07:17:56.067Z,7.14
2023-12-30T07:20:23.059Z,7.12
2023-12-30T07:22:49.703Z,7.15
2023-12-30T07:25:16.455Z,7.00
2023-12-30T07:27:43.158Z,7.08
2023-12-30T07:30:10.118Z,7.08
2023-12-30T07:32:37.575Z,7.05
2023-12-30T07:35:08.521Z,7.00
2023-12-30T07:37:36.281Z,6.97
2023-12-30T07:40:04.813Z,6.98
2023-12-30T07:42:31.750Z,6.89
2023-12-30T07:44:58.652Z,7.01
2023-12-30T07:47:27.624Z,6.98
2023-12-30T07:49:54.560Z,6.92
2023-12-30T07:52:21.316Z,6.93
2023-12-30T07:54:49.567Z,6.86
2023-12-30T07:57:16.185Z,6.89
2023-12-30T07:59:43.069Z,6.83
2023-12-30T08:02:10.143Z,6.82
2023-12-30T08:04:36.912Z,6.82
2023-12-30T08:07:04.945Z,6.73
2023-12-30T08:09:31.645Z,6.78
2023-12-30T08:12:02.540Z,6.75
2023-12-30T08:14:30.265Z,6.67
2023-12-30T08:16:56.927Z,6.72
2023-12-30T08:19:23.748Z,6.68
2023-12-30T08:21:50.919Z,6.66
2023-12-30T08:24:21.030Z,6.65
2023-12-30T08:26:48.041Z,6.64
2023-12-30T08:29:17.273Z,6.61
2023-12-30T08:31:47.436Z,6.56
2023-12-30T08:34:15.749Z,6.57
2023-12-30T08:36:44.441Z,6.51
2023-12-30T08:39:11.318Z,6.54
2023-12-30T08:41:40.475Z,6.50
2023-12-30T08:44:07.750Z,6.49
2023-12-30T08:46:35.323Z,6.57
2023-12-30T08:49:07.391Z,6.50
2023-12-30T08:51:36.169Z,6.54
2023-12-30T08:54:04.113Z,6.52
2023-12-30T08:56:35.161Z,6.49
2023-12-30T08:59:02.447Z,6.63
2023-12-30T09:01:29.331Z,6.62
2023-12-30T09:03:58.113Z,6.67
2023-12-30T09:06:25.029Z,6.67
2023-12-30T09:08:51.755Z,6.77
2023-12-30T09:11:22.767Z,6.69
2023-12-30T09:13:50.882Z,6.77
2023-12-30T09:16:17.638Z,6.84
2023-12-30T09:18:44.445Z,6.88
2023-12-30T09:21:11.370Z,6.87
2023-12-30T09:23:39.008Z,6.97
2023-12-30T09:26:05.918Z,6.98
2023-12-30T09:28:32.502Z,7.03
2023-12-30T09:30:59.252Z,7.00
2023-12-30T09:33:26.538Z,7.03
2023-12-30T09:35:56.215Z,6.95
2023-12-30T09:38:27.169Z,6.98
2023-12-30T09:40:55.881Z,7.13
2023-12-30T09:43:28.400Z,7.14
2023-12-30T09:45:59.906Z,7.13
2023-12-30T09:48:28.964Z,7.12
2023-12-30T09:50:59.054Z,7.25
2023-12-30T09:53:26.397Z,7.27
2023-12-30T09:55:54.396Z,7.37
2023-12-30T09:58:22.702Z,7.41
2023-12-30T10:00:49.975Z,7.45
2023-12-30T10:03:17.347Z,7.63
2023-12-30T10:05:44.378Z,7.45
2023-12-30T10:08:11.338Z,7.59
2023-12-30T10:10:45.837Z,7.71
2023-12-30T10:13:14.801Z,7.60
2023-12-30T10:15:43.663Z,7.75
2023-12-30T10:18:11.068Z,7.80
2023-12-30T10:20:42.420Z,7.78
2023-12-30T10:23:09.342Z,7.80
2023-12-30T10:25:36.731Z,8.07
2023-12-30T10:28:03.999Z,8.00
2023-12-30T10:30:32.374Z,8.07
2023-12-30T10:33:15.593Z,8.25
2023-12-30T10:35:44.514Z,8.40
2023-12-30T10:38:15.632Z,8.48
2023-12-30T10:40:44.849Z,8.53
2023-12-30T10:43:12.395Z,8.55
2023-12-30T10:45:39.271Z,8.58
2023-12-30T10:48:09.709Z,8.68
2023-12-30T10:50:39.197Z,8.70
2023-12-30T10:53:17.461Z,8.73
2023-12-30T10:55:51.974Z,8.68
2023-12-30T10:58:24.228Z,8.67
2023-12-30T11:01:02.883Z,8.57
2023-12-30T11:03:32.764Z,8.59
2023-12-30T11:06:16.608Z,8.73
2023-12-30T11:08:45.317Z,8.77
2023-12-30T11:11:15.887Z,8.78
2023-12-30T11:13:43.171Z,8.93
2023-12-30T11:16:18.238Z,8.82
2023-12-30T11:18:50.151Z,8.93
2023-12-30T11:21:44.499Z,9.18
2023-12-30T11:24:12.753Z,9.13
2023-12-30T11:26:44.920Z,9.17
2023-12-30T11:29:18.579Z,9.32
2023-12-30T11:31:47.856Z,9.34
2023-12-30T11:34:19.412Z,9.26
2023-12-30T11:36:48.447Z,9.28
2023-12-30T11:39:19.696Z,9.21
2023-12-30T11:41:46.927Z,9.19
2023-12-30T11:44:13.717Z,9.16
2023-12-30T11:46:42.760Z,9.31
2023-12-30T11:49:09.867Z,9.39
2023-12-30T11:51:37.905Z,9.38
2023-12-30T11:54:05.330Z,9.53
2023-12-30T11:56:32.077Z,9.49
2023-12-30T11:58:58.630Z,9.60
2023-12-30T12:01:25.560Z,9.60
2023-12-30T12:03:54.114Z,9.59
2023-12-30T12:06:21.884Z,9.52
2023-12-30T12:08:51.907Z,9.42
2023-12-30T12:11:18.666Z,9.35
2023-12-30T12:13:46.989Z,9.53
2023-12-30T12:16:14.485Z,9.39
2023-12-30T12:18:42.577Z,9.38
2023-12-30T12:21:13.723Z,9.40
2023-12-30T12:23:43.607Z,9.53
2023-12-30T12:26:12.109Z,9.33
2023-12-30T12:28:40.754Z,9.42
2023-12-30T12:31:08.072Z,9.38
2023-12-30T12:33:37.002Z,9.44
2023-12-30T12:36:06.258Z,9.42
2023-12-30T12:38:33.190Z,9.42
2023-12-30T12:41:00.091Z,9.45
2023-12-30T12:43:27.106Z,9.47
2023-12-30T12:45:53.920Z,9.53
2023-12-30T12:48:21.018Z,9.65
2023-12-30T12:50:48.108Z,9.56
2023-12-30T12:53:15.204Z,9.54
2023-12-30T12:55:42.409Z,9.47
2023-12-30T12:58:09.224Z,9.58
2023-12-30T13:00:36.549Z,9.67
2023-12-30T13:03:04.293Z,9.48
2023-12-30T13:05:31.580Z,9.41
2023-12-30T13:08:00.735Z,9.65
2023-12-30T13:10:36.113Z,9.58
2023-12-30T13:13:03.706Z,9.33
2023-12-30T13:15:32.591Z,9.37
2023-12-30T13:18:02.459Z,9.40
2023-12-30T13:20:29.253Z,9.49
2023-12-30T13:22:59.228Z,9.54
2023-12-30T13:25:29.588Z,9.51
2023-12-30T13:27:56.517Z,9.49
2023-12-30T13:30:26.988Z,9.41
2023-12-30T13:33:04.367Z,9.15
2023-12-30T13:35:42.230Z,9.20
2023-12-30T13:38:16.415Z,9.18
2023-12-30T13:40:45.603Z,9.24
2023-12-30T13:43:13.325Z,9.19
2023-12-30T13:45:53.608Z,9.20
2023-12-30T13:51:27.721Z,9.09
2023-12-30T13:59:22.301Z,9.20
2023-12-30T14:01:49.303Z,9.22
2023-12-30T14:04:21.095Z,9.15
2023-12-30T14:06:47.971Z,9.14
2023-12-30T14:09:29.498Z,9.17
2023-12-30T14:12:02.994Z,9.11
2023-12-30T14:14:41.326Z,9.13
2023-12-30T14:17:08.904Z,9.10
2023-12-30T14:19:36.556Z,9.03
2023-12-30T14:22:13.645Z,8.96
2023-12-30T14:24:47.436Z,9.00
2023-12-30T14:27:14.840Z,8.97
2023-12-30T14:29:50.074Z,8.94
2023-12-30T14:32:16.765Z,8.96
2023-12-30T14:34:44.729Z,8.91
2023-12-30T14:37:12.827Z,8.86
2023-12-30T14:39:40.496Z,8.94
2023-12-30T14:42:10.766Z,8.85
2023-12-30T14:44:37.813Z,8.68
2023-12-30T14:47:04.858Z,8.73
2023-12-30T14:49:32.661Z,8.63
2023-12-30T14:52:01.550Z,8.57
2023-12-30T14:54:28.442Z,8.58
2023-12-30T14:56:56.348Z,8.56
2023-12-30T14:59:24.866Z,8.47
2023-12-30T15:01:52.948Z,8.42
2023-12-30T15:04:21.583Z,8.46
2023-12-30T15:06:50.232Z,8.41
2023-12-30T15:09:17.734Z,8.27
2023-12-30T15:11:48.118Z,8.39
2023-12-30T15:14:16.265Z,8.36
2023-12-30T15:16:43.506Z,8.22
2023-12-30T15:19:10.982Z,8.28
2023-12-30T15:21:38.320Z,8.29
2023-12-30T15:24:05.284Z,8.31
2023-12-30T15:26:32.108Z,8.21
2023-12-30T15:28:58.774Z,8.21
2023-12-30T15:31:25.725Z,8.10
2023-12-30T15:33:52.611Z,8.01
2023-12-30T15:36:20.377Z,8.10
2023-12-30T15:38:47.061Z,8.01
2023-12-30T15:41:13.973Z,7.96
2023-12-30T15:43:41.188Z,7.96
2023-12-30T15:46:09.340Z,7.83
2023-12-30T15:48:37.786Z,7.90
2023-12-30T15:51:05.034Z,7.74
2023-12-30T15:53:33.992Z,7.74
2023-12-30T15:56:02.133Z,7.69
2023-12-30T15:58:28.911Z,7.65
2023-12-30T16:00:56.897Z,7.58
2023-12-30T16:03:23.605Z,7.55
2023-12-30T16:05:51.153Z,7.57
2023-12-30T16:08:18.172Z,7.50
2023-12-30T16:10:46.181Z,7.50
2023-12-30T16:13:13.480Z,7.44
2023-12-30T16:15:40.259Z,7.43
2023-12-30T16:18:07.375Z,7.42
2023-12-30T16:20:34.103Z,7.37
2023-12-30T16:23:08.963Z,7.29
2023-12-30T16:25:38.658Z,7.19
2023-12-30T16:28:06.807Z,7.25
2023-12-30T16:30:33.655Z,7.24
2023-12-30T16:33:01.620Z,7.19
2023-12-30T16:35:29.119Z,7.10
2023-12-30T16:37:55.861Z,7.08
2023-12-30T16:40:23.129Z,7.05
2023-12-30T16:42:49.953Z,7.11
2023-12-30T16:45:16.567Z,7.08
2023-12-30T16:47:43.770Z,7.07
2023-12-30T16:50:10.789Z,6.96
2023-12-30T16:52:39.413Z,7.08
2023-12-30T16:55:12.128Z,7.10
2023-12-30T16:57:39.219Z,7.09
2023-12-30T17:00:10.989Z,7.06
2023-12-30T17:02:39.503Z,7.00
2023-12-30T17:05:14.115Z,7.00
2023-12-30T17:07:41.580Z,6.99
2023-12-30T17:10:08.751Z,7.01
2023-12-30T17:12:35.738Z,7.09
2023-12-30T17:15:02.588Z,7.16
2023-12-30T17:17:29.678Z,6.91
2023-12-30T17:19:56.424Z,6.88
2023-12-30T17:22:23.804Z,6.84
2023-12-30T17:24:53.656Z,7.01
2023-12-30T17:27:20.288Z,6.96
2023-12-30T17:29:47.038Z,6.96
2023-12-30T17:32:14.007Z,6.91
2023-12-30T17:34:41.083Z,6.90
2023-12-30T17:37:07.703Z,6.85
2023-12-30T17:39:34.360Z,6.81
2023-12-30T17:42:02.370Z,6.81
2023-12-30T17:44:31.835Z,6.71
2023-12-30T17:46:59.057Z,6.71
2023-12-30T17:49:26.186Z,6.76
2023-12-30T17:51:52.830Z,6.71
2023-12-30T17:54:19.494Z,6.76
2023-12-30T17:56:46.227Z,6.65
2023-12-30T17:59:13.243Z,6.66
2023-12-30T18:01:40.483Z,6.57
2023-12-30T18:04:09.170Z,6.73
2023-12-30T18:06:35.839Z,6.70
2023-12-30T18:09:03.758Z,6.72
2023-12-30T18:11:30.570Z,6.73
2023-12-30T18:13:57.366Z,6.73
2023-12-30T18:16:24.356Z,6.73
2023-12-30T18:18:51.624Z,6.82
2023-12-30T18:21:18.207Z,6.78
2023-12-30T18:23:44.886Z,6.81
2023-12-30T18:26:22.437Z,6.69
2023-12-30T18:28:49.120Z,6.72
2023-12-30T18:31:16.201Z,6.72
2023-12-30T18:33:42.941Z,6.69
2023-12-30T18:36:10.979Z,6.69
2023-12-30T18:38:37.713Z,6.66
2023-12-30T18:41:05.591Z,6.62
2023-12-30T18:43:32.325Z,6.53
2023-12-30T18:46:00.902Z,6.52
2023-12-30T18:48:28.585Z,6.59
2023-12-30T18:50:55.658Z,6.51
2023-12-30T18:53:22.514Z,6.52
2023-12-30T18:55:49.209Z,6.49
2023-12-30T18:58:16.585Z,6.34
2023-12-30T19:00:43.670Z,6.34
2023-12-30T19:03:11.656Z,6.35
2023-12-30T19:05:39.635Z,6.23
2023-12-30T19:08:07.714Z,6.25
2023-12-30T19:10:34.361Z,6.15
2023-12-30T19:13:01.120Z,6.24
2023-12-30T19:15:30.546Z,6.20
2023-12-30T19:18:00.656Z,6.18
2023-12-30T19:20:27.429Z,6.20
2023-12-30T19:22:54.044Z,6.17
2023-12-30T19:25:20.861Z,6.18
2023-12-30T19:27:47.414Z,6.18
2023-12-30T19:30:14.690Z,6.21
2023-12-30T19:32:41.525Z,6.20
2023-12-30T19:35:09.120Z,6.22
2023-12-30T19:37:36.263Z,6.23
2023-12-30T19:40:03.594Z,6.23
2023-12-30T19:42:30.182Z,6.15
2023-12-30T19:44:58.101Z,6.17
2023-12-30T19:47:24.760Z,6.18
2023-12-30T19:49:51.431Z,6.19
2023-12-30T19:52:18.302Z,6.18
2023-12-30T19:54:48.357Z,6.20
2023-12-30T19:57:15.664Z,6.14
2023-12-30T19:59:43.568Z,6.18
2023-12-30T20:02:10.698Z,6.19
2023-12-30T20:04:41.477Z,6.23
2023-12-30T20:07:12.449Z,6.24
2023-12-30T20:09:40.556Z,6.20
2023-12-30T20:12:08.562Z,6.08
2023-12-30T20:14:37.836Z,6.17
2023-12-30T20:17:05.611Z,6.30
2023-12-30T20:19:34.238Z,6.22
2023-12-30T20:22:04.408Z,6.20
2023-12-30T20:24:31.226Z,6.30
2023-12-30T20:26:58.077Z,6.15
2023-12-30T20:29:24.853Z,6.16
2023-12-30T20:31:54.183Z,6.41
2023-12-30T20:34:23.695Z,6.27
2023-12-30T20:36:50.983Z,6.29
2023-12-30T20:39:17.830Z,6.23
2023-12-30T20:41:44.627Z,6.31
2023-12-30T20:44:11.708Z,6.22
2023-12-30T20:46:42.441Z,6.15
2023-12-30T20:49:11.437Z,6.07
2023-12-30T20:51:38.303Z,6.08
2023-12-30T20:54:05.064Z,6.21
2023-12-30T20:56:31.675Z,6.08
2023-12-30T20:58:58.498Z,6.11
2023-12-30T21:01:26.304Z,5.96
2023-12-30T21:03:54.751Z,5.93
2023-12-30T21:06:21.453Z,5.94
2023-12-30T21:08:48.168Z,5.92
2023-12-30T21:11:15.008Z,5.81
2023-12-30T21:13:42.403Z,5.75
2023-12-30T21:16:09.380Z,5.63
2023-12-30T21:18:36.391Z,5.84
2023-12-30T21:21:04.789Z,5.69
2023-12-30T21:23:31.812Z,5.66
2023-12-30T21:25:59.556Z,5.72
2023-12-30T21:28:29.640Z,5.73
2023-12-30T21:30:56.546Z,5.76
2023-12-30T21:33:23.270Z,5.57
2023-12-30T21:35:50.254Z,5.51
2023-12-30T21:38:17.484Z,5.65
2023-12-30T21:40:45.099Z,5.65
2023-12-30T21:43:11.853Z,5.69
2023-12-30T21:45:38.563Z,5.59
2023-12-30T21:48:08.214Z,5.75
2023-12-30T21:50:35.046Z,6.01
2023-12-30T21:53:05.599Z,6.18
2023-12-30T21:58:13.127Z,6.34
2023-12-30T22:00:41.784Z,6.57
2023-12-30T22:03:11.169Z,6.62
2023-12-30T22:05:39.561Z,6.74
2023-12-30T22:08:07.118Z,6.87
2023-12-30T22:10:35.427Z,6.93
2023-12-30T22:13:04.937Z,7.05
2023-12-30T22:15:31.935Z,7.03
2023-12-30T22:17:59.035Z,7.01
2023-12-30T22:20:28.820Z,7.11
2023-12-30T22:22:55.398Z,7.12
2023-12-30T22:25:22.286Z,7.14
2023-12-30T22:27:49.242Z,7.19
2023-12-30T22:30:16.161Z,7.02
2023-12-30T22:32:43.052Z,7.18
2023-12-30T22:35:14.513Z,7.11
2023-12-30T22:37:42.067Z,7.07
2023-12-30T22:40:10.808Z,7.09
2023-12-30T22:42:39.023Z,7.19
2023-12-30T22:45:09.457Z,7.20
2023-12-30T22:47:37.930Z,7.25
2023-12-30T22:50:08.637Z,7.31
2023-12-30T22:52:36.085Z,7.33
2023-12-30T22:55:04.092Z,7.33
2023-12-30T22:57:33.581Z,7.35
2023-12-30T23:00:00.788Z,7.44
2023-12-30T23:02:27.811Z,7.40
2023-12-30T23:04:55.556Z,7.47
2023-12-30T23:07:23.800Z,7.51
2023-12-30T23:09:50.914Z,7.44
2023-12-30T23:12:19.500Z,7.56
2023-12-30T23:14:46.251Z,7.42
2023-12-30T23:17:13.562Z,7.45
2023-12-30T23:19:41.273Z,7.47
2023-12-30T23:22:09.284Z,7.36
2023-12-30T23:24:37.352Z,7.37
2023-12-30T23:27:04.844Z,7.27
2023-12-30T23:29:31.818Z,7.33
2023-12-30T23:32:05.816Z,7.36
2023-12-30T23:34:42.516Z,7.20
2023-12-30T23:37:13.346Z,7.15
2023-12-30T23:39:40.888Z,7.18
2023-12-30T23:42:09.064Z,7.11
2023-12-30T23:44:35.705Z,7.14
2023-12-30T23:47:03.828Z,7.10
2023-12-30T23:49:30.821Z,7.15
2023-12-30T23:51:58.335Z,7.20
2023-12-30T23:54:25.283Z,7.22
2023-12-30T23:56:54.437Z,7.15
2023-12-30T23:59:22.481Z,7.28
